Time;durP1;ratioP1;P1;durP2;ratioP2;P2;SDS_P1;SDS_P2;PMS_P1;PMS_P2;Temp;Humidity;BMP_temperature;BMP_pressure;BME280_temperature;BME280_humidity;BME280_pressure;Samples;Min_cycle;Max_cycle;Signal;HPM_P1;HPM_P2
2021/08/08 00:02:00;;;;;;;1.55;0.40;;;;;;;19.52;58.98;100419.53;5033238;28;20041;-59
2021/08/08 00:04:25;;;;;;;1.33;0.20;;;;;;;19.52;59.61;100427.69;5033235;28;20071;-59
2021/08/08 00:06:50;;;;;;;1.15;0.38;;;;;;;19.50;59.66;100427.03;5033353;28;20028;-59
2021/08/08 00:09:16;;;;;;;0.75;0.35;;;;;;;19.52;60.27;100433.16;5032713;28;20040;-59
2021/08/08 00:11:42;;;;;;;0.40;0.10;;;;;;;19.58;58.40;100438.91;5033267;28;20079;-60
2021/08/08 00:14:08;;;;;;;0.20;0.05;;;;;;;19.62;59.56;100440.22;5033248;28;20025;-59
2021/08/08 00:16:34;;;;;;;0.30;0.22;;;;;;;19.56;59.59;100452.72;5033254;28;20028;-59
2021/08/08 00:18:59;;;;;;;0.77;0.40;;;;;;;19.57;58.35;100448.13;5033449;28;20025;-59
2021/08/08 00:21:25;;;;;;;1.33;0.30;;;;;;;19.53;59.18;100459.38;5033075;28;20107;-59
2021/08/08 00:23:50;;;;;;;0.80;0.30;;;;;;;19.53;59.45;100453.09;5033152;28;20112;-59
2021/08/08 00:26:16;;;;;;;1.10;0.45;;;;;;;19.52;59.59;100457.69;5032655;28;20163;-59
2021/08/08 00:28:43;;;;;;;1.25;0.30;;;;;;;19.49;59.53;100452.63;5033185;28;20040;-59
2021/08/08 00:31:09;;;;;;;1.48;0.30;;;;;;;19.53;59.12;100448.47;5033116;28;20025;-59
2021/08/08 00:33:34;;;;;;;1.30;0.10;;;;;;;19.52;59.42;100446.78;5031407;28;20048;-59
2021/08/08 00:36:00;;;;;;;0.85;0.22;;;;;;;19.51;60.43;100455.16;5031046;28;20025;-59
2021/08/08 00:38:26;;;;;;;2.17;0.32;;;;;;;19.51;59.50;100458.72;5032812;28;20208;-59
2021/08/08 00:40:52;;;;;;;0.73;0.22;;;;;;;19.53;59.23;100456.66;5033166;28;20531;-59
2021/08/08 00:43:17;;;;;;;1.35;0.20;;;;;;;19.51;59.62;100461.44;5032900;28;20560;-59
2021/08/08 00:45:43;;;;;;;1.55;0.10;;;;;;;19.48;60.22;100460.97;5033098;28;20029;-59
2021/08/08 00:48:08;;;;;;;1.90;0.20;;;;;;;19.51;60.97;100456.00;5032979;28;20028;-59
2021/08/08 00:50:33;;;;;;;2.08;0.32;;;;;;;19.50;60.50;100467.09;5032917;28;20025;-59
2021/08/08 00:52:59;;;;;;;0.20;0.20;;;;;;;19.50;59.80;100470.66;5032996;28;20075;-59
2021/08/08 00:55:24;;;;;;;0.95;0.40;;;;;;;19.52;60.59;100468.59;5032771;28;20017;-59
2021/08/08 00:57:49;;;;;;;1.25;0.75;;;;;;;19.49;59.93;100470.84;5032613;28;20436;-59
2021/08/08 01:00:15;;;;;;;0.57;0.20;;;;;;;19.49;59.49;100468.97;5032895;28;20025;-59
2021/08/08 01:02:47;;;;;;;1.15;0.22;;;;;;;19.45;59.96;100473.09;5032473;28;20054;-59
2021/08/08 01:05:16;;;;;;;0.82;0.10;;;;;;;19.45;60.52;100467.63;5032462;28;20143;-59
2021/08/08 01:07:54;;;;;;;0.68;0.20;;;;;;;19.44;59.22;100471.41;5032704;28;20040;-58
2021/08/08 01:10:19;;;;;;;1.33;0.17;;;;;;;19.44;59.77;100471.41;5032432;28;20400;-59
2021/08/08 01:12:45;;;;;;;0.40;0.30;;;;;;;19.44;60.38;100473.28;5032749;28;20036;-59
2021/08/08 01:15:11;;;;;;;3.28;0.30;;;;;;;19.45;59.06;100478.53;5032595;28;20029;-59
2021/08/08 01:17:38;;;;;;;0.38;0.10;;;;;;;19.44;59.99;100476.84;5031234;28;20583;-59
2021/08/08 01:20:09;;;;;;;1.20;0.30;;;;;;;19.42;59.46;100484.38;5030196;28;20025;-59
2021/08/08 01:22:38;;;;;;;1.50;0.30;;;;;;;19.48;60.04;100483.66;5028107;28;20068;-59
2021/08/08 01:25:06;;;;;;;1.65;0.30;;;;;;;19.43;59.62;100477.03;5032411;28;20092;-59
2021/08/08 01:27:32;;;;;;;1.90;0.30;;;;;;;19.38;60.09;100472.16;5032339;28;20029;-59
2021/08/08 01:29:58;;;;;;;0.52;0.30;;;;;;;19.42;59.42;100473.47;5032726;28;20376;-59
2021/08/08 01:32:24;;;;;;;1.15;0.22;;;;;;;19.44;59.17;100476.84;5032415;28;20029;-59
2021/08/08 01:34:49;;;;;;;0.85;0.40;;;;;;;19.40;59.55;100472.81;5032641;28;20022;-59
2021/08/08 01:37:19;;;;;;;0.30;0.30;;;;;;;19.40;60.31;100481.00;5032532;28;20034;-59
2021/08/08 01:39:54;;;;;;;1.23;0.40;;;;;;;19.41;59.88;100490.84;5035160;28;20384;-59
2021/08/08 01:42:22;;;;;;;1.38;0.45;;;;;;;19.37;60.46;100500.44;5032251;28;20044;-59
2021/08/08 01:44:50;;;;;;;0.65;0.20;;;;;;;19.43;59.75;100488.78;5035742;28;20027;-59
2021/08/08 01:47:19;;;;;;;2.08;0.35;;;;;;;19.36;59.37;100484.28;5034533;28;20033;-59
2021/08/08 01:49:45;;;;;;;2.13;0.55;;;;;;;19.41;59.98;100488.13;5035914;28;20025;-59
2021/08/08 01:52:11;;;;;;;0.75;0.40;;;;;;;19.39;59.89;100490.19;5035677;28;20104;-59
2021/08/08 01:54:37;;;;;;;3.55;0.32;;;;;;;19.43;59.68;100486.06;5035665;28;20030;-59
2021/08/08 01:57:05;;;;;;;1.73;0.35;;;;;;;19.39;59.52;100489.34;5035741;28;20036;-59
2021/08/08 01:59:30;;;;;;;1.08;0.38;;;;;;;19.44;59.31;100493.19;5035727;28;20053;-59
2021/08/08 02:01:55;;;;;;;1.10;0.22;;;;;;;19.39;60.17;100490.19;5035515;28;20081;-59
2021/08/08 02:04:25;;;;;;;0.10;0.10;;;;;;;19.47;59.90;100502.88;5035454;28;20018;-59
2021/08/08 02:06:50;;;;;;;1.73;0.40;;;;;;;19.37;59.38;100492.28;5035703;28;20052;-59
2021/08/08 02:09:16;;;;;;;1.25;0.20;;;;;;;19.34;59.64;100487.19;5035368;28;20052;-59
2021/08/08 02:11:41;;;;;;;0.57;0.10;;;;;;;19.39;59.60;100490.19;5035444;28;20032;-59
2021/08/08 02:14:07;;;;;;;2.03;0.28;;;;;;;19.39;59.33;100494.81;5035261;28;20411;-59
2021/08/08 02:16:33;;;;;;;2.53;0.40;;;;;;;19.37;59.41;100497.72;5035359;28;20029;-59
2021/08/08 02:19:00;;;;;;;2.22;0.52;;;;;;;19.36;59.44;100485.13;5035382;28;20021;-59
2021/08/08 02:21:25;;;;;;;1.15;0.30;;;;;;;19.33;59.67;100490.97;5035175;28;20021;-59
2021/08/08 02:23:51;;;;;;;0.60;0.20;;;;;;;19.37;59.26;100507.78;5035209;28;20109;-59
2021/08/08 02:26:16;;;;;;;0.85;0.20;;;;;;;19.36;60.14;100500.63;5035157;28;20028;-59
2021/08/08 02:28:42;;;;;;;2.22;0.10;;;;;;;19.34;60.47;100509.00;5035040;28;20030;-59
2021/08/08 02:31:07;;;;;;;0.63;0.15;;;;;;;19.33;59.88;100512.75;5033959;28;20114;-59
2021/08/08 02:33:32;;;;;;;0.93;0.60;;;;;;;19.33;59.48;100512.75;5035001;28;20029;-59
2021/08/08 02:35:58;;;;;;;2.58;0.40;;;;;;;19.33;60.13;100515.50;5035078;28;20076;-59
2021/08/08 02:38:24;;;;;;;1.55;0.60;;;;;;;19.36;59.95;100512.38;5034860;28;20029;-59
2021/08/08 02:40:50;;;;;;;2.80;0.30;;;;;;;19.27;60.55;100515.38;5033733;28;20519;-60
2021/08/08 02:43:16;;;;;;;1.13;0.30;;;;;;;19.32;59.49;100519.25;5034703;28;20116;-59
2021/08/08 02:45:41;;;;;;;1.40;0.40;;;;;;;19.32;59.58;100521.97;5034837;28;20468;-59
2021/08/08 02:48:07;;;;;;;0.73;0.17;;;;;;;19.29;60.30;100511.41;5034539;28;20026;-59
2021/08/08 02:50:32;;;;;;;0.68;0.30;;;;;;;19.32;60.73;100519.25;5034375;28;20061;-59
2021/08/08 02:52:58;;;;;;;0.75;0.25;;;;;;;19.32;59.46;100516.53;5034792;28;20028;-59
2021/08/08 02:55:23;;;;;;;1.15;0.35;;;;;;;19.29;59.68;100533.22;5034601;28;20022;-59
2021/08/08 02:57:48;;;;;;;0.93;0.40;;;;;;;19.31;59.73;100528.44;5034595;28;20037;-59
2021/08/08 03:00:14;;;;;;;1.58;0.30;;;;;;;19.31;60.05;100524.84;5034290;28;20029;-59
2021/08/08 03:02:39;;;;;;;1.35;0.28;;;;;;;19.32;59.24;100521.97;5034291;28;20544;-59
2021/08/08 03:05:05;;;;;;;2.47;0.40;;;;;;;19.26;60.25;100509.06;5034352;28;20021;-59
2021/08/08 03:07:30;;;;;;;0.38;0.30;;;;;;;19.30;59.80;100510.38;5034452;28;20033;-59
2021/08/08 03:09:56;;;;;;;0.90;0.52;;;;;;;19.28;59.85;100512.44;5034163;28;20032;-59
2021/08/08 03:12:21;;;;;;;1.30;0.30;;;;;;;19.28;59.56;100515.19;5034177;28;20040;-59
2021/08/08 03:14:46;;;;;;;1.27;0.20;;;;;;;19.30;60.31;100507.66;5034352;28;20116;-60
2021/08/08 03:17:12;;;;;;;0.95;0.38;;;;;;;19.25;60.15;100515.56;5034226;28;20033;-59
2021/08/08 03:19:37;;;;;;;1.13;0.30;;;;;;;19.33;59.63;100526.41;5034238;28;20025;-59
2021/08/08 03:22:03;;;;;;;2.13;0.22;;;;;;;19.29;59.05;100510.56;5034059;28;20044;-59
2021/08/08 03:24:28;;;;;;;0.40;0.20;;;;;;;19.33;59.40;100506.47;5033971;28;20025;-59
2021/08/08 03:26:53;;;;;;;0.43;0.20;;;;;;;19.26;61.06;100506.34;5034111;28;20029;-59
2021/08/08 03:29:19;;;;;;;0.45;0.25;;;;;;;19.31;59.98;100524.84;5034095;28;20025;-59
2021/08/08 03:31:44;;;;;;;1.20;0.68;;;;;;;19.30;58.89;100531.34;5034034;28;20447;-60
2021/08/08 03:34:09;;;;;;;1.88;0.40;;;;;;;19.26;60.06;100532.75;5033853;28;20021;-60
2021/08/08 03:36:34;;;;;;;2.78;0.50;;;;;;;19.21;59.69;100525.97;5033678;28;20021;-60
2021/08/08 03:39:01;;;;;;;0.82;0.20;;;;;;;19.28;59.64;100531.53;5033877;28;20079;-59
2021/08/08 03:41:26;;;;;;;1.45;0.30;;;;;;;19.31;59.96;100542.06;5033828;28;20056;-59
2021/08/08 03:43:52;;;;;;;1.55;0.28;;;;;;;19.26;60.46;100551.81;5033771;28;20029;-59
2021/08/08 03:46:17;;;;;;;2.67;0.50;;;;;;;19.25;60.82;100534.63;5033561;28;20424;-59
2021/08/08 03:48:42;;;;;;;1.60;0.30;;;;;;;19.23;60.00;100523.06;5033751;28;20029;-59
2021/08/08 03:51:08;;;;;;;1.30;0.28;;;;;;;19.32;60.74;100527.44;5033671;28;20029;-59
2021/08/08 03:53:33;;;;;;;1.35;0.30;;;;;;;19.24;59.94;100525.59;5033561;28;20021;-59
2021/08/08 03:55:58;;;;;;;2.05;0.20;;;;;;;19.30;59.68;100528.63;5033435;28;20395;-59
2021/08/08 03:58:29;;;;;;;0.82;0.35;;;;;;;19.31;60.08;100535.75;5033410;28;20682;-59
2021/08/08 04:00:55;;;;;;;1.92;0.30;;;;;;;19.27;60.91;100540.75;5032626;28;20068;-59
2021/08/08 04:03:20;;;;;;;0.85;0.32;;;;;;;20.37;56.96;100549.91;5033185;28;20029;-59
2021/08/08 04:05:45;;;;;;;0.40;0.20;;;;;;;20.72;55.71;100550.97;5033407;28;20422;-59
2021/08/08 04:08:10;;;;;;;2.63;0.35;;;;;;;20.91;56.55;100556.84;5033193;28;20036;-59
2021/08/08 04:10:36;;;;;;;2.83;0.35;;;;;;;21.02;56.36;100553.59;5033051;28;20487;-59
2021/08/08 04:13:01;;;;;;;1.05;0.20;;;;;;;21.10;56.99;100558.91;5033435;28;20067;-59
2021/08/08 04:15:26;;;;;;;0.20;0.10;;;;;;;21.15;55.03;100563.78;5033312;28;20025;-59
2021/08/08 04:17:52;;;;;;;0.85;0.28;;;;;;;21.27;56.15;100563.09;5033374;28;20021;-58
2021/08/08 04:20:17;;;;;;;0.40;0.20;;;;;;;21.24;57.31;100555.28;5033108;28;20033;-59
2021/08/08 04:22:42;;;;;;;0.55;0.13;;;;;;;21.27;57.26;100568.56;5033419;28;20100;-59
2021/08/08 04:25:08;;;;;;;1.30;0.30;;;;;;;21.33;57.42;100572.38;5032977;28;20034;-59
2021/08/08 04:27:33;;;;;;;1.08;0.28;;;;;;;21.38;56.50;100566.34;5033344;28;20032;-59
2021/08/08 04:29:59;;;;;;;0.60;0.25;;;;;;;21.30;57.72;100562.69;5033095;28;20021;-60
2021/08/08 04:32:25;;;;;;;0.93;0.22;;;;;;;21.37;58.76;100573.69;5033043;28;20028;-59
2021/08/08 04:34:50;;;;;;;1.30;0.32;;;;;;;21.41;55.98;100568.69;5033183;28;20026;-59
2021/08/08 04:37:16;;;;;;;0.95;0.40;;;;;;;21.39;57.39;100571.63;5033060;28;20025;-59
2021/08/08 04:39:41;;;;;;;0.45;0.10;;;;;;;21.39;57.27;100588.03;5033149;28;20384;-59
2021/08/08 04:42:06;;;;;;;1.00;0.47;;;;;;;21.36;59.03;100582.94;5033035;28;20029;-59
2021/08/08 04:44:32;;;;;;;0.77;0.20;;;;;;;21.32;59.57;100585.22;5033073;28;20025;-59
2021/08/08 04:46:57;;;;;;;0.47;0.30;;;;;;;21.37;56.86;100594.72;5032882;28;20379;-59
2021/08/08 04:49:22;;;;;;;1.48;0.50;;;;;;;21.38;59.19;100591.81;5032819;28;20037;-59
2021/08/08 04:51:48;;;;;;;0.52;0.10;;;;;;;21.38;59.36;100591.81;5032989;28;20036;-59
2021/08/08 04:54:13;;;;;;;1.13;0.20;;;;;;;21.41;58.33;100598.75;5032677;28;20017;-59
2021/08/08 04:56:38;;;;;;;1.35;0.15;;;;;;;21.40;59.73;100605.28;5032919;28;20384;-59
2021/08/08 04:59:04;;;;;;;1.35;0.30;;;;;;;21.40;58.61;100597.06;5032791;28;20017;-59
2021/08/08 05:01:29;;;;;;;0.73;0.20;;;;;;;21.46;59.33;100597.13;5032563;28;20045;-59
2021/08/08 05:03:56;;;;;;;0.73;0.30;;;;;;;21.47;58.74;100584.28;5032694;28;20452;-59
2021/08/08 05:06:22;;;;;;;0.85;0.20;;;;;;;21.52;59.70;100587.28;5032610;28;20036;-59
2021/08/08 05:08:47;;;;;;;1.30;0.20;;;;;;;21.47;59.37;100585.13;5032825;28;20021;-59
2021/08/08 05:11:16;;;;;;;1.00;0.30;;;;;;;21.41;59.39;100580.47;5032677;28;20026;-59
2021/08/08 05:13:42;;;;;;;0.20;0.20;;;;;;;21.52;59.29;100582.66;5035477;28;20025;-59
2021/08/08 05:16:07;;;;;;;0.90;0.55;;;;;;;21.59;57.99;100574.50;5036506;28;20039;-59
2021/08/08 05:18:33;;;;;;;0.20;0.20;;;;;;;21.50;58.21;100570.22;5036569;28;20372;-59
2021/08/08 05:20:58;;;;;;;2.08;0.32;;;;;;;21.47;58.04;100576.94;5036567;28;20494;-59
2021/08/08 05:23:23;;;;;;;0.73;0.20;;;;;;;21.43;57.08;100577.53;5036335;28;20044;-59
2021/08/08 05:25:49;;;;;;;0.45;0.15;;;;;;;21.38;57.28;100580.00;5036448;28;20104;-59
2021/08/08 05:28:14;;;;;;;0.25;0.20;;;;;;;21.38;59.64;100569.06;5036327;28;20025;-59
2021/08/08 05:30:40;;;;;;;0.57;0.30;;;;;;;21.30;57.88;100561.84;5036363;28;20025;-59
2021/08/08 05:33:05;;;;;;;0.30;0.17;;;;;;;21.27;57.82;100565.81;5036149;28;20515;-59
2021/08/08 05:35:30;;;;;;;0.70;0.20;;;;;;;21.30;58.59;100562.69;5036108;28;20035;-59
2021/08/08 05:37:56;;;;;;;1.40;0.45;;;;;;;21.25;59.01;100564.34;5036190;28;20538;-59
2021/08/08 05:40:21;;;;;;;1.02;0.30;;;;;;;21.20;58.80;100564.06;5036013;28;20369;-59
2021/08/08 05:42:48;;;;;;;0.35;0.10;;;;;;;21.25;60.11;100559.72;5036144;28;20025;-59
2021/08/08 05:45:14;;;;;;;0.50;0.10;;;;;;;21.20;59.12;100564.91;5035707;28;20365;-59
2021/08/08 05:47:40;;;;;;;0.45;0.20;;;;;;;21.20;59.30;100567.63;5036014;28;20032;-59
2021/08/08 05:50:05;;;;;;;0.75;0.30;;;;;;;21.24;59.57;100574.44;5035809;28;20071;-59
2021/08/08 05:52:31;;;;;;;0.20;0.20;;;;;;;21.22;59.37;100581.94;5035774;28;20468;-59
2021/08/08 05:54:59;;;;;;;0.10;0.10;;;;;;;21.23;57.66;100578.19;5035871;28;20032;-59
2021/08/08 05:57:24;;;;;;;1.67;0.20;;;;;;;21.20;58.77;100575.84;5035727;28;20018;-59
2021/08/08 05:59:50;;;;;;;0.90;0.25;;;;;;;21.18;58.13;100580.66;5035763;28;20104;-59
2021/08/08 06:02:15;;;;;;;2.38;0.32;;;;;;;21.17;58.43;100578.97;5035215;28;20061;-59
2021/08/08 06:04:40;;;;;;;1.13;0.30;;;;;;;21.20;58.68;100575.84;5035458;28;20025;-59
2021/08/08 06:07:06;;;;;;;0.75;0.30;;;;;;;21.18;60.58;100580.66;5034281;28;20372;-59
2021/08/08 06:09:31;;;;;;;0.28;0.10;;;;;;;21.16;59.17;100571.78;5033305;28;20032;-59
2021/08/08 06:11:56;;;;;;;0.98;0.30;;;;;;;21.20;58.60;100575.00;5033658;28;20033;-59
2021/08/08 06:14:22;;;;;;;2.78;0.45;;;;;;;21.20;59.89;100572.25;5035424;28;20014;-59
2021/08/08 06:16:47;;;;;;;0.85;0.30;;;;;;;21.22;58.83;100576.47;5035504;28;20462;-59
2021/08/08 06:19:12;;;;;;;0.88;0.30;;;;;;;21.13;60.56;100577.66;5035179;28;20025;-59
2021/08/08 06:21:38;;;;;;;1.50;0.32;;;;;;;21.12;59.56;100584.16;5035345;28;20021;-59
2021/08/08 06:24:03;;;;;;;0.90;0.15;;;;;;;21.17;58.12;100573.50;5033169;28;20059;-59
2021/08/08 06:26:29;;;;;;;1.10;0.35;;;;;;;21.14;59.87;100571.13;5035324;28;20028;-59
2021/08/08 06:28:55;;;;;;;0.50;0.20;;;;;;;21.22;60.42;100571.00;5035321;28;20368;-59
2021/08/08 06:31:21;;;;;;;0.43;0.20;;;;;;;21.21;60.31;100573.94;5035234;28;20550;-59
2021/08/08 06:33:46;;;;;;;0.40;0.17;;;;;;;21.23;60.05;100569.97;5035074;28;20030;-59
2021/08/08 06:36:12;;;;;;;0.45;0.20;;;;;;;21.09;58.32;100565.41;5035288;28;20026;-59
2021/08/08 06:38:37;;;;;;;0.15;0.10;;;;;;;21.13;59.22;100569.44;5035051;28;20495;-59
2021/08/08 06:41:03;;;;;;;0.20;0.10;;;;;;;21.22;59.38;100570.16;5034818;28;20087;-59
2021/08/08 06:43:28;;;;;;;1.45;0.20;;;;;;;21.19;57.99;100576.03;5034770;28;20057;-59
2021/08/08 06:45:53;;;;;;;1.20;0.10;;;;;;;21.16;59.41;100577.25;5034887;28;20399;-59
2021/08/08 06:48:19;;;;;;;0.82;0.30;;;;;;;21.14;61.58;100565.66;5034755;28;20068;-59
2021/08/08 06:50:44;;;;;;;2.25;0.40;;;;;;;21.09;60.52;100570.88;5034727;28;20021;-59
2021/08/08 06:53:09;;;;;;;0.98;0.20;;;;;;;21.11;59.56;100563.34;5034713;28;20373;-59
2021/08/08 06:55:35;;;;;;;1.30;0.20;;;;;;;21.13;61.13;100566.72;5034778;28;20025;-59
2021/08/08 06:58:00;;;;;;;0.60;0.20;;;;;;;21.10;58.33;100560.81;5034610;28;20072;-60
2021/08/08 07:00:25;;;;;;;1.90;0.50;;;;;;;21.03;60.18;100566.22;5034516;28;20028;-59
2021/08/08 07:02:51;;;;;;;0.93;0.20;;;;;;;21.10;59.41;100569.00;5034516;28;20045;-59
2021/08/08 07:05:17;;;;;;;0.20;0.20;;;;;;;21.06;59.19;100568.56;5034450;28;20369;-59
2021/08/08 07:07:42;;;;;;;0.40;0.20;;;;;;;21.08;58.41;100576.56;5034273;28;20070;-59
2021/08/08 07:10:08;;;;;;;0.35;0.13;;;;;;;21.11;59.37;100577.00;5034437;28;20037;-60
2021/08/08 07:12:34;;;;;;;0.82;0.20;;;;;;;21.08;59.95;100569.19;5034077;28;20025;-59
2021/08/08 07:14:59;;;;;;;0.60;0.20;;;;;;;21.05;59.16;100579.69;5034489;28;20018;-59
2021/08/08 07:17:24;;;;;;;1.00;0.30;;;;;;;21.08;58.77;100574.66;5034098;28;20464;-59
2021/08/08 07:19:50;;;;;;;0.20;0.10;;;;;;;21.15;58.69;100570.09;5034353;28;20026;-59
2021/08/08 07:22:15;;;;;;;0.32;0.10;;;;;;;21.14;59.98;100562.09;5034083;28;20132;-59
2021/08/08 07:24:41;;;;;;;0.73;0.13;;;;;;;21.07;59.47;100562.03;5034166;28;20072;-59
2021/08/08 07:27:07;;;;;;;1.38;0.17;;;;;;;21.11;59.65;100562.50;5033831;28;20472;-59
2021/08/08 07:29:32;;;;;;;0.95;0.30;;;;;;;21.14;60.83;100562.94;5033977;28;20018;-60
2021/08/08 07:31:58;;;;;;;1.95;0.22;;;;;;;21.11;60.65;100568.81;5034160;28;20404;-59
2021/08/08 07:34:23;;;;;;;0.38;0.10;;;;;;;21.15;58.40;100575.56;5033769;28;20028;-59
2021/08/08 07:36:49;;;;;;;1.08;0.30;;;;;;;21.13;59.21;100566.72;5033883;28;20028;-59
2021/08/08 07:39:14;;;;;;;0.70;0.13;;;;;;;21.09;58.96;100568.16;5033556;28;20039;-59
2021/08/08 07:41:40;;;;;;;0.32;0.20;;;;;;;21.15;60.39;100567.34;5033706;28;20025;-59
2021/08/08 07:44:05;;;;;;;0.30;0.20;;;;;;;21.20;58.79;100573.09;5033804;28;20037;-59
2021/08/08 07:46:30;;;;;;;0.38;0.10;;;;;;;21.11;60.52;100571.53;5033653;28;20048;-59
2021/08/08 07:48:56;;;;;;;0.95;0.50;;;;;;;21.09;60.35;100576.34;5033873;28;20025;-59
2021/08/08 07:51:21;;;;;;;0.15;0.15;;;;;;;21.10;60.21;100571.72;5033468;28;20116;-59
2021/08/08 07:53:46;;;;;;;0.52;0.20;;;;;;;21.10;60.35;100575.31;5033665;28;20022;-59
2021/08/08 07:56:12;;;;;;;1.02;0.22;;;;;;;21.10;59.37;100571.72;5033904;28;20025;-59
2021/08/08 07:58:38;;;;;;;0.98;0.20;;;;;;;21.14;58.12;100568.41;5033418;28;20555;-59
2021/08/08 08:01:03;;;;;;;2.20;0.20;;;;;;;21.15;59.60;100572.81;5033418;28;20572;-59
2021/08/08 08:03:29;;;;;;;1.13;0.30;;;;;;;21.12;59.35;100578.69;5033387;28;20108;-59
2021/08/08 08:05:56;;;;;;;0.10;0.10;;;;;;;21.12;61.29;100586.88;5033515;28;20056;-59
2021/08/08 08:08:22;;;;;;;0.98;0.20;;;;;;;21.10;60.22;100599.91;5033261;28;20017;-59
2021/08/08 08:10:47;;;;;;;0.30;0.15;;;;;;;21.13;61.05;100599.50;5028086;28;20483;-60
2021/08/08 08:13:13;;;;;;;1.58;0.28;;;;;;;21.14;60.30;100606.66;5031084;28;20030;-59
2021/08/08 08:15:38;;;;;;;0.60;0.10;;;;;;;21.21;59.18;100607.59;5031505;28;20056;-59
2021/08/08 08:18:03;;;;;;;0.75;0.10;;;;;;;21.22;59.40;100605.72;5033257;28;20475;-59
2021/08/08 08:20:29;;;;;;;0.38;0.10;;;;;;;21.13;61.03;100607.72;5033265;28;20036;-60
2021/08/08 08:22:54;;;;;;;0.30;0.10;;;;;;;21.13;60.24;100610.44;5033295;28;20463;-60
2021/08/08 08:25:20;;;;;;;0.80;0.20;;;;;;;21.18;60.26;100613.47;5033082;28;20026;-59
2021/08/08 08:27:45;;;;;;;0.73;0.40;;;;;;;21.18;58.82;100618.94;5033279;28;20345;-59
2021/08/08 08:30:11;;;;;;;0.38;0.28;;;;;;;21.20;59.58;100627.78;5033092;28;20025;-59
2021/08/08 08:32:37;;;;;;;0.80;0.20;;;;;;;21.11;59.79;100628.94;5032846;28;20028;-59
2021/08/08 08:35:04;;;;;;;0.98;0.28;;;;;;;21.10;58.70;100638.19;5033254;28;20385;-59
2021/08/08 08:37:33;;;;;;;0.20;0.15;;;;;;;21.15;60.28;100634.84;5032884;28;20461;-60
2021/08/08 08:40:00;;;;;;;0.57;0.30;;;;;;;21.15;60.73;100630.22;5032953;28;20063;-59
2021/08/08 08:42:28;;;;;;;0.10;0.10;;;;;;;21.13;61.42;100636.94;5032968;28;20049;-59
2021/08/08 08:44:55;;;;;;;0.75;0.57;;;;;;;21.15;60.26;100630.22;5033057;28;20045;-59
2021/08/08 08:47:21;;;;;;;0.52;0.30;;;;;;;21.18;60.72;100634.50;5033390;28;20021;-59
2021/08/08 08:49:50;;;;;;;0.50;0.30;;;;;;;21.21;61.28;100637.66;5036971;28;20025;-60
2021/08/08 08:52:21;;;;;;;0.90;0.40;;;;;;;21.13;60.31;100632.31;5036955;28;20387;-59
2021/08/08 08:54:48;;;;;;;1.95;0.30;;;;;;;21.15;60.94;100641.16;5037096;28;20201;-59
2021/08/08 08:57:16;;;;;;;0.82;0.25;;;;;;;21.14;59.32;100641.38;5036657;28;20472;-59
2021/08/08 08:59:47;;;;;;;0.85;0.43;;;;;;;21.13;60.80;100648.72;5036783;28;20033;-59
2021/08/08 09:02:13;;;;;;;2.28;0.22;;;;;;;21.12;59.65;100646.19;5036346;28;20562;-59
2021/08/08 09:04:38;;;;;;;0.82;0.30;;;;;;;21.09;60.78;100644.69;5036721;28;20036;-59
2021/08/08 09:07:04;;;;;;;0.28;0.10;;;;;;;21.18;60.27;100648.16;5036651;28;20395;-59
2021/08/08 09:09:31;;;;;;;1.13;0.52;;;;;;;21.20;59.45;100644.19;5036555;28;20040;-60
2021/08/08 09:11:57;;;;;;;0.90;0.13;;;;;;;21.13;60.44;100651.44;5036605;28;20028;-59
2021/08/08 09:14:23;;;;;;;0.20;0.13;;;;;;;21.15;61.41;100654.84;5036535;28;20029;-60
2021/08/08 09:16:54;;;;;;;0.30;0.30;;;;;;;21.12;60.41;100657.97;5036602;28;20025;-60
2021/08/08 09:19:24;;;;;;;0.50;0.10;;;;;;;21.18;60.62;100662.66;5036183;28;20417;-59
2021/08/08 09:21:51;;;;;;;0.50;0.10;;;;;;;21.20;60.75;100659.75;5036637;28;20419;-59
2021/08/08 09:24:28;;;;;;;0.22;0.08;;;;;;;21.18;60.78;100665.41;5036170;28;20057;-59
2021/08/08 09:27:05;;;;;;;0.80;0.30;;;;;;;21.11;59.15;100680.03;5036265;28;20018;-59
2021/08/08 09:29:31;;;;;;;0.75;0.28;;;;;;;21.09;58.81;100680.22;5036130;28;20447;-60
2021/08/08 09:31:56;;;;;;;1.05;0.30;;;;;;;21.13;59.23;100684.25;5036315;28;20072;-60
2021/08/08 09:34:25;;;;;;;0.60;0.20;;;;;;;21.14;59.58;100683.22;5036165;28;20045;-60
2021/08/08 09:36:52;;;;;;;1.60;0.40;;;;;;;21.11;61.82;100682.75;5036119;28;20032;-60
2021/08/08 09:39:29;;;;;;;0.32;0.10;;;;;;;21.14;57.60;100688.69;5036011;28;20113;-59
2021/08/08 09:42:14;;;;;;;0.25;0.20;;;;;;;21.14;59.62;100683.22;5036128;28;20025;-60
2021/08/08 09:44:56;;;;;;;0.35;0.10;;;;;;;21.13;61.11;100676.06;5035904;28;20383;-59
2021/08/08 09:47:23;;;;;;;1.33;0.40;;;;;;;21.09;60.07;100680.22;5035873;28;20507;-59
2021/08/08 09:49:59;;;;;;;0.60;0.20;;;;;;;21.16;58.81;100686.59;5035931;28;20025;-59
2021/08/08 09:52:25;;;;;;;0.43;0.30;;;;;;;21.16;61.85;100686.59;5035833;28;20476;-59
2021/08/08 09:54:51;;;;;;;0.28;0.17;;;;;;;21.10;62.53;100690.13;5035323;28;20032;-60
2021/08/08 09:57:16;;;;;;;1.85;0.38;;;;;;;21.07;60.54;100687.78;5035631;28;20104;-59
2021/08/08 09:59:49;;;;;;;2.08;0.30;;;;;;;21.11;58.94;100689.06;5034318;28;20033;-59
2021/08/08 10:02:19;;;;;;;1.35;0.30;;;;;;;21.06;61.42;100686.09;5035460;28;20440;-59
2021/08/08 10:04:45;;;;;;;0.10;0.10;;;;;;;21.15;60.58;100684.91;5035717;28;20036;-59
2021/08/08 10:07:10;;;;;;;1.27;0.15;;;;;;;21.11;60.71;100688.22;5035622;28;20021;-59
2021/08/08 10:09:36;;;;;;;0.38;0.30;;;;;;;21.14;62.28;100683.22;5035611;28;20025;-59
2021/08/08 10:12:19;;;;;;;0.47;0.13;;;;;;;21.12;60.96;100682.56;5035383;28;20022;-59
2021/08/08 10:14:45;;;;;;;0.40;0.15;;;;;;;21.20;58.25;100674.25;5035556;28;20072;-59
2021/08/08 10:17:11;;;;;;;0.20;0.10;;;;;;;21.16;60.40;100692.06;5035436;28;20411;-59
2021/08/08 10:19:37;;;;;;;1.55;0.20;;;;;;;21.13;60.47;100692.44;5034349;28;20029;-59
2021/08/08 10:22:03;;;;;;;0.28;0.10;;;;;;;21.15;60.48;100687.63;5035363;28;20491;-59
2021/08/08 10:24:30;;;;;;;2.05;0.25;;;;;;;21.13;58.07;100700.66;5035311;28;20029;-59
2021/08/08 10:26:55;;;;;;;0.82;0.25;;;;;;;21.20;61.50;100687.91;5035230;28;20126;-59
2021/08/08 10:29:21;;;;;;;0.15;0.15;;;;;;;21.17;61.91;100687.47;5033130;28;20472;-59
2021/08/08 10:31:49;;;;;;;2.63;0.50;;;;;;;21.13;61.20;100687.00;5035255;28;20076;-59
2021/08/08 10:34:14;;;;;;;3.30;0.60;;;;;;;21.09;59.66;100691.16;5034976;28;20522;-60
2021/08/08 10:36:40;;;;;;;0.60;0.38;;;;;;;21.16;61.46;100694.78;5035158;28;20025;-59
2021/08/08 10:39:16;;;;;;;2.80;0.40;;;;;;;21.18;62.10;100700.94;5034813;28;20502;-60
2021/08/08 10:41:56;;;;;;;0.25;0.10;;;;;;;21.18;60.05;100706.41;5034985;28;20067;-59
2021/08/08 10:44:22;;;;;;;1.48;0.20;;;;;;;21.18;61.04;100711.88;5034870;28;20030;-59
2021/08/08 10:46:52;;;;;;;1.25;0.25;;;;;;;21.13;62.17;100713.47;5033790;28;20029;-60
2021/08/08 10:49:33;;;;;;;1.23;0.17;;;;;;;21.18;61.04;100714.63;5034664;28;20033;-59
2021/08/08 10:51:59;;;;;;;0.30;0.13;;;;;;;21.18;61.69;100722.81;5034896;28;20029;-59
2021/08/08 10:54:25;;;;;;;1.63;0.30;;;;;;;21.14;61.22;100724.22;5034620;28;20017;-59
2021/08/08 10:56:50;;;;;;;2.08;0.40;;;;;;;21.13;61.88;100725.25;5034874;28;20091;-59
2021/08/08 10:59:26;;;;;;;1.42;0.25;;;;;;;21.18;60.38;100727.44;5034646;28;20392;-59
2021/08/08 11:02:08;;;;;;;2.50;0.55;;;;;;;21.14;60.28;100726.94;5034472;28;20076;-60
2021/08/08 11:04:35;;;;;;;1.02;0.30;;;;;;;21.17;60.33;100723.84;5034531;28;20021;-59
2021/08/08 11:07:03;;;;;;;1.17;0.63;;;;;;;21.17;58.51;100721.13;5034611;28;20025;-59
2021/08/08 11:09:30;;;;;;;0.22;0.20;;;;;;;21.20;59.92;100737.13;5034505;28;20036;-59
2021/08/08 11:11:56;;;;;;;0.38;0.10;;;;;;;21.20;60.34;100739.88;5034077;28;20013;-59
2021/08/08 11:14:22;;;;;;;0.63;0.25;;;;;;;21.23;60.79;100747.69;5034354;28;20017;-59
2021/08/08 11:17:05;;;;;;;0.30;0.10;;;;;;;21.18;59.32;100733.75;5034447;28;20030;-59
2021/08/08 11:19:35;;;;;;;1.23;0.55;;;;;;;21.22;60.76;100729.59;5034188;28;20021;-59
2021/08/08 11:22:07;;;;;;;0.35;0.10;;;;;;;21.23;60.17;100731.28;5033925;28;20029;-59